Time;durP1;ratioP1;P1;durP2;ratioP2;P2;SDS_P1;SDS_P2;PMS_P1;PMS_P2;Temp;Humidity;BMP_temperature;BMP_pressure;BME280_temperature;BME280_humidity;BME280_pressure;Samples;Min_cycle;Max_cycle;Signal;HPM_P1;HPM_P2
2022/09/25 00:00:46;;;;;;;4.60;4.10;;;15.90;99.90;;;;;;6186418;23;20027;-79
2022/09/25 00:03:12;;;;;;;4.57;4.13;;;15.90;99.90;;;;;;6186398;23;20028;-79
2022/09/25 00:05:40;;;;;;;4.85;4.18;;;15.90;99.90;;;;;;6158950;23;20036;-79
2022/09/25 00:08:07;;;;;;;4.72;4.43;;;15.90;99.90;;;;;;6158219;23;20249;-79
2022/09/25 00:10:33;;;;;;;4.45;4.05;;;15.80;99.90;;;;;;6185044;23;20008;-79
2022/09/25 00:13:00;;;;;;;4.78;4.40;;;15.80;99.90;;;;;;6184563;23;20440;-76
2022/09/25 00:15:25;;;;;;;4.38;4.07;;;15.80;99.90;;;;;;6184555;23;20001;-76
2022/09/25 00:17:51;;;;;;;4.80;4.40;;;15.80;99.90;;;;;;6157983;23;20488;-76
2022/09/25 00:20:22;;;;;;;4.18;3.88;;;15.80;99.90;;;;;;6157108;23;20381;-76
2022/09/25 00:22:49;;;;;;;4.50;4.10;;;15.70;99.90;;;;;;6183476;23;20076;-76
2022/09/25 00:25:15;;;;;;;5.10;4.57;;;15.80;99.90;;;;;;6157946;23;20239;-76
2022/09/25 00:27:43;;;;;;;4.85;4.45;;;15.80;99.90;;;;;;6184411;23;20016;-76
2022/09/25 00:30:11;;;;;;;5.40;4.90;;;15.80;99.90;;;;;;6158113;23;20007;-76
2022/09/25 00:32:37;;;;;;;5.15;4.70;;;15.80;99.90;;;;;;6184618;23;20238;-76
2022/09/25 00:35:04;;;;;;;5.95;4.30;;;15.80;99.90;;;;;;6157815;23;20032;-76
2022/09/25 00:37:32;;;;;;;4.80;4.40;;;15.80;99.90;;;;;;6184482;23;20337;-76
2022/09/25 00:39:58;;;;;;;4.55;4.28;;;15.80;99.90;;;;;;6158203;23;20096;-76
2022/09/25 00:42:24;;;;;;;4.35;4.03;;;15.80;99.90;;;;;;6157739;23;20092;-76
2022/09/25 00:44:57;;;;;;;5.25;4.75;;;15.70;99.90;;;;;;6157583;23;20040;-76
2022/09/25 00:47:31;;;;;;;4.60;4.30;;;15.80;99.90;;;;;;6184553;23;20048;-76
2022/09/25 00:50:01;;;;;;;4.10;3.70;;;15.70;99.90;;;;;;6157631;23;20333;-76
2022/09/25 00:52:28;;;;;;;5.82;4.47;;;15.70;99.90;;;;;;6184541;23;20004;-76
2022/09/25 00:55:01;;;;;;;4.63;4.32;;;15.70;99.90;;;;;;6184628;23;19997;-76
2022/09/25 00:57:30;;;;;;;4.43;4.13;;;15.70;99.90;;;;;;6183993;23;20396;-76
2022/09/25 01:00:01;;;;;;;4.57;4.20;;;15.70;99.90;;;;;;6184383;23;20028;-76
2022/09/25 01:02:29;;;;;;;4.72;4.32;;;15.80;99.90;;;;;;6158059;23;20035;-76
2022/09/25 01:05:08;;;;;;;4.65;4.25;;;15.80;99.90;;;;;;6184222;23;20001;-77
2022/09/25 01:07:39;;;;;;;4.43;4.13;;;15.80;99.90;;;;;;6183860;23;20002;-76
2022/09/25 01:10:07;;;;;;;4.30;4.00;;;15.70;99.90;;;;;;6157339;23;20039;-76
2022/09/25 01:12:39;;;;;;;5.97;3.95;;;15.70;99.90;;;;;;6157994;23;20131;-77
2022/09/25 01:15:11;;;;;;;4.28;4.07;;;15.80;99.90;;;;;;6184412;23;20371;-76
2022/09/25 01:18:00;;;;;;;3.53;3.33;;;15.80;99.90;;;;;;6183873;23;20084;-76
2022/09/25 01:21:04;;;;;;;4.93;4.38;;;15.80;99.90;;;;;;6184353;23;20452;-77
2022/09/25 01:24:04;;;;;;;3.65;3.40;;;15.80;99.90;;;;;;6169803;23;20209;-76
2022/09/25 01:27:01;;;;;;;3.70;3.47;;;15.80;99.90;;;;;;6184024;23;20084;-76
2022/09/25 01:29:46;;;;;;;9.93;3.90;;;15.80;99.90;;;;;;6156972;23;20005;-76
2022/09/25 01:32:43;;;;;;;4.05;3.75;;;15.80;99.90;;;;;;6183971;23;20004;-76
2022/09/25 01:35:27;;;;;;;3.80;3.50;;;15.90;99.90;;;;;;6157876;23;20001;-76
2022/09/25 01:37:53;;;;;;;4.10;3.70;;;15.90;99.90;;;;;;6157147;23;20075;-76
2022/09/25 01:40:32;;;;;;;4.38;4.05;;;15.90;99.90;;;;;;6157675;23;20005;-76
2022/09/25 01:43:04;;;;;;;3.78;3.55;;;15.90;99.90;;;;;;6157803;23;20032;-76
2022/09/25 01:45:54;;;;;;;4.10;3.70;;;15.90;99.90;;;;;;6157365;23;20157;-77
2022/09/25 01:48:25;;;;;;;4.30;4.07;;;15.90;99.90;;;;;;6183531;23;20001;-76
2022/09/25 01:51:09;;;;;;;3.88;3.67;;;15.90;99.90;;;;;;6157573;23;20384;-76
2022/09/25 01:53:43;;;;;;;4.25;3.95;;;15.90;99.90;;;;;;6157500;23;20011;-76
2022/09/25 01:56:47;;;;;;;4.10;3.80;;;15.90;99.90;;;;;;6183352;23;19996;-76
2022/09/25 01:59:19;;;;;;;3.85;3.65;;;15.80;99.90;;;;;;6182865;23;20385;-76
2022/09/25 02:01:46;;;;;;;3.65;3.42;;;15.80;99.90;;;;;;6182864;23;20008;-76
2022/09/25 02:04:44;;;;;;;4.15;3.78;;;15.80;99.90;;;;;;6183826;23;20029;-76
2022/09/25 02:07:17;;;;;;;3.85;3.65;;;15.80;99.90;;;;;;6133455;23;20443;-76
2022/09/25 02:09:49;;;;;;;3.67;3.47;;;15.70;99.90;;;;;;6183441;23;20001;-76
2022/09/25 02:12:22;;;;;;;63.05;45.55;;;15.70;99.90;;;;;;6157285;23;20003;-76
2022/09/25 02:14:52;;;;;;;38.05;29.38;;;15.70;99.90;;;;;;6182533;23;20081;-76
2022/09/25 02:22:57;;;;;;;7.38;6.78;;;15.80;99.90;;;;;;6183575;23;20019;-76
2022/09/25 02:25:39;;;;;;;5.43;4.93;;;15.80;99.90;;;;;;6183769;23;20437;-76
2022/09/25 02:28:04;;;;;;;4.55;4.25;;;15.70;99.90;;;;;;6183650;23;20005;-76
2022/09/25 02:30:30;;;;;;;3.72;3.53;;;15.70;99.90;;;;;;6183346;23;20008;-76
2022/09/25 02:32:56;;;;;;;4.70;4.10;;;15.70;99.90;;;;;;6183940;23;20079;-76
2022/09/25 02:35:24;;;;;;;3.58;3.33;;;15.70;99.90;;;;;;6157269;23;20006;-76
2022/09/25 02:37:52;;;;;;;3.75;3.45;;;15.70;99.90;;;;;;6183468;23;20320;-76
2022/09/25 02:40:20;;;;;;;4.57;3.70;;;15.70;99.90;;;;;;6156368;23;20005;-76
2022/09/25 02:43:26;;;;;;;3.88;3.58;;;15.60;99.90;;;;;;6180768;23;20056;-76
2022/09/25 02:45:52;;;;;;;3.17;2.97;;;15.60;99.90;;;;;;6148104;23;20015;-76
2022/09/25 02:48:33;;;;;;;2.47;2.30;;;15.60;99.90;;;;;;6156512;23;20092;-76
2022/09/25 02:51:26;;;;;;;4.28;2.83;;;15.60;99.90;;;;;;6183012;23;20075;-76
2022/09/25 02:54:10;;;;;;;2.38;2.28;;;15.50;99.90;;;;;;6156307;23;20057;-76
2022/09/25 02:56:53;;;;;;;2.80;2.60;;;15.50;99.90;;;;;;6154958;23;20012;-76
2022/09/25 02:59:31;;;;;;;2.55;2.40;;;15.60;99.90;;;;;;6151624;23;20018;-76
2022/09/25 03:01:58;;;;;;;2.97;2.78;;;15.60;99.90;;;;;;6152051;23;20006;-76
2022/09/25 03:04:26;;;;;;;3.95;3.75;;;15.60;99.90;;;;;;6152235;23;20012;-76
2022/09/25 03:06:52;;;;;;;3.92;3.72;;;15.60;99.90;;;;;;6153616;23;20001;-76
2022/09/25 03:09:21;;;;;;;3.65;3.42;;;15.60;99.90;;;;;;6153564;23;20002;-76
2022/09/25 03:11:47;;;;;;;3.70;3.50;;;15.60;99.90;;;;;;6151651;23;20002;-76
2022/09/25 03:14:12;;;;;;;4.05;3.72;;;15.60;99.90;;;;;;6153759;23;20052;-76
2022/09/25 03:16:48;;;;;;;3.63;3.42;;;15.50;99.90;;;;;;6153460;23;20009;-76
2022/09/25 03:19:15;;;;;;;4.30;3.90;;;15.50;99.90;;;;;;6153654;23;20001;-76
2022/09/25 03:21:41;;;;;;;5.22;3.88;;;15.50;99.90;;;;;;6153616;23;20036;-76
2022/09/25 03:24:07;;;;;;;4.20;3.90;;;15.50;99.90;;;;;;6153438;23;20005;-76
2022/09/25 03:26:33;;;;;;;3.63;3.30;;;15.50;99.90;;;;;;6153599;23;20009;-76
2022/09/25 03:29:01;;;;;;;3.72;3.53;;;15.60;99.90;;;;;;6151809;23;20242;-77
2022/09/25 03:31:28;;;;;;;4.25;3.95;;;15.60;99.90;;;;;;6153543;23;20005;-76
2022/09/25 03:33:54;;;;;;;4.43;4.13;;;15.50;99.90;;;;;;6152693;23;20005;-76
2022/09/25 03:36:23;;;;;;;4.13;3.83;;;15.50;99.90;;;;;;6155401;23;20002;-76
2022/09/25 03:38:51;;;;;;;3.60;3.40;;;15.50;99.90;;;;;;6155388;23;20001;-76
2022/09/25 03:41:25;;;;;;;3.78;3.58;;;15.50;99.90;;;;;;6153462;23;20006;-76
2022/09/25 03:43:51;;;;;;;4.45;4.05;;;15.50;99.90;;;;;;6152910;23;20037;-76
2022/09/25 03:46:19;;;;;;;3.95;3.63;;;15.50;99.90;;;;;;6155340;23;19998;-76
2022/09/25 03:48:45;;;;;;;4.38;4.13;;;15.50;99.90;;;;;;6153778;23;20006;-76
2022/09/25 03:51:12;;;;;;;4.10;3.83;;;15.50;99.90;;;;;;6154291;23;19997;-76
2022/09/25 03:53:38;;;;;;;4.00;3.80;;;15.50;99.90;;;;;;6152910;23;20002;-76
2022/09/25 03:56:07;;;;;;;4.70;4.40;;;15.50;99.90;;;;;;6151363;23;20402;-76
2022/09/25 03:58:33;;;;;;;4.80;4.35;;;15.50;99.90;;;;;;6156133;23;20455;-76
2022/09/25 04:01:00;;;;;;;4.38;4.05;;;15.50;99.90;;;;;;6182594;23;20041;-76
2022/09/25 04:03:27;;;;;;;4.38;4.07;;;15.50;99.90;;;;;;6156435;23;20009;-76
2022/09/25 04:05:57;;;;;;;4.20;4.00;;;15.50;99.90;;;;;;6183254;23;20031;-76
2022/09/25 04:08:25;;;;;;;4.60;4.30;;;15.40;99.90;;;;;;6184559;23;20080;-76
2022/09/25 04:10:58;;;;;;;4.72;4.43;;;15.50;99.90;;;;;;6158426;23;20036;-76
2022/09/25 04:13:25;;;;;;;4.85;4.55;;;15.50;99.90;;;;;;6184800;23;19997;-76
2022/09/25 04:15:51;;;;;;;4.70;4.40;;;15.50;99.90;;;;;;6158365;23;20001;-76
2022/09/25 04:18:19;;;;;;;4.93;4.38;;;15.50;99.90;;;;;;6157887;23;20016;-76
2022/09/25 04:20:45;;;;;;;4.72;4.32;;;15.40;99.90;;;;;;6184828;23;20151;-76
2022/09/25 04:23:11;;;;;;;5.70;4.95;;;15.40;99.90;;;;;;6184776;23;20414;-76
2022/09/25 04:25:36;;;;;;;5.05;4.75;;;15.40;99.90;;;;;;6184677;23;20328;-76
2022/09/25 04:28:03;;;;;;;4.75;4.38;;;15.30;99.90;;;;;;6158154;23;20016;-76
2022/09/25 04:30:29;;;;;;;5.07;4.75;;;15.30;99.90;;;;;;6158459;23;20083;-76
2022/09/25 04:35:40;;;;;;;5.43;5.03;;;15.30;99.90;;;;;;6184630;23;20015;-76
2022/09/25 04:38:07;;;;;;;5.05;4.75;;;15.40;99.90;;;;;;6184661;23;20008;-76
2022/09/25 04:40:33;;;;;;;5.35;4.95;;;15.30;99.90;;;;;;6184560;23;20005;-76
2022/09/25 04:43:01;;;;;;;5.50;5.10;;;15.40;99.90;;;;;;6184550;23;20008;-76
2022/09/25 04:45:27;;;;;;;5.10;4.53;;;15.40;99.90;;;;;;6158268;23;20009;-76
2022/09/25 04:47:54;;;;;;;5.03;4.72;;;15.40;99.90;;;;;;6184092;23;20005;-77
2022/09/25 04:50:23;;;;;;;5.90;5.40;;;15.30;99.90;;;;;;6184501;23;20051;-76
2022/09/25 04:52:50;;;;;;;6.90;6.25;;;15.30;99.90;;;;;;6158245;23;20028;-76
2022/09/25 04:55:23;;;;;;;7.00;6.40;;;15.30;99.90;;;;;;6158102;23;20083;-76
2022/09/25 04:58:00;;;;;;;5.53;5.13;;;15.30;99.90;;;;;;6157677;23;20441;-76
2022/09/25 05:00:29;;;;;;;5.30;4.90;;;15.20;99.90;;;;;;6184370;23;20317;-77
2022/09/25 05:02:55;;;;;;;5.15;4.70;;;15.10;99.90;;;;;;6184618;23;20306;-77
2022/09/25 05:05:21;;;;;;;6.13;5.50;;;15.10;99.90;;;;;;6184610;23;20021;-77
2022/09/25 05:07:51;;;;;;;5.22;4.82;;;15.10;99.90;;;;;;6156962;23;20075;-77
2022/09/25 05:10:17;;;;;;;5.68;5.28;;;15.00;99.90;;;;;;6184471;23;20001;-76
2022/09/25 05:12:42;;;;;;;6.05;5.30;;;15.00;99.90;;;;;;6184341;23;20035;-77
2022/09/25 05:15:09;;;;;;;5.57;5.18;;;15.00;99.90;;;;;;6184092;23;20329;-77
2022/09/25 05:17:34;;;;;;;5.80;5.40;;;15.00;99.90;;;;;;6184135;23;20287;-77
2022/09/25 05:20:03;;;;;;;6.57;5.28;;;15.00;99.90;;;;;;6184272;23;20420;-77
2022/09/25 05:22:29;;;;;;;6.45;5.72;;;15.00;99.90;;;;;;6157717;23;20012;-76
2022/09/25 05:24:55;;;;;;;5.47;5.07;;;15.00;99.90;;;;;;6184193;23;20005;-77
2022/09/25 05:27:22;;;;;;;5.93;5.40;;;14.90;99.90;;;;;;6184028;23;20561;-76
2022/09/25 05:29:48;;;;;;;5.60;5.10;;;14.90;99.90;;;;;;6157367;23;20005;-76
2022/09/25 05:32:15;;;;;;;6.35;5.75;;;14.90;99.90;;;;;;6184134;23;20013;-76
2022/09/25 05:34:40;;;;;;;8.82;6.22;;;15.00;99.90;;;;;;6184126;23;19997;-77
2022/09/25 05:37:06;;;;;;;5.43;5.03;;;15.00;99.90;;;;;;6157884;23;20031;-77
2022/09/25 05:39:32;;;;;;;5.82;5.32;;;15.00;99.90;;;;;;6183940;23;20417;-77
2022/09/25 05:41:58;;;;;;;7.05;5.90;;;15.10;99.90;;;;;;6184010;23;20052;-77
2022/09/25 05:44:26;;;;;;;6.70;6.15;;;15.00;99.90;;;;;;6157594;23;20036;-77
2022/09/25 05:46:52;;;;;;;6.88;6.18;;;15.10;99.90;;;;;;6157607;23;20341;-76
2022/09/25 05:49:18;;;;;;;6.25;5.70;;;15.10;99.90;;;;;;6183902;23;20056;-77
2022/09/25 05:51:44;;;;;;;7.45;6.72;;;15.10;99.90;;;;;;6157618;23;20008;-77
2022/09/25 05:54:12;;;;;;;7.30;6.70;;;15.00;99.90;;;;;;6183826;23;20001;-77
2022/09/25 05:56:38;;;;;;;6.50;6.00;;;15.00;99.90;;;;;;6157262;23;20005;-77
2022/09/25 05:59:03;;;;;;;6.43;5.80;;;15.00;99.90;;;;;;6183612;23;20020;-77
2022/09/25 06:01:29;;;;;;;6.95;6.35;;;15.00;99.90;;;;;;6157419;23;20001;-77
2022/09/25 06:03:55;;;;;;;7.20;6.60;;;15.00;99.90;;;;;;6157411;23;20001;-77
2022/09/25 06:06:20;;;;;;;7.00;6.30;;;15.10;99.90;;;;;;6157562;23;20084;-77
2022/09/25 06:08:46;;;;;;;6.70;6.20;;;15.10;99.90;;;;;;6183806;23;20011;-76
2022/09/25 06:11:12;;;;;;;6.20;5.80;;;15.20;99.90;;;;;;6183684;23;20332;-76
2022/09/25 06:13:38;;;;;;;5.97;5.47;;;15.20;99.90;;;;;;6157516;23;20001;-77
2022/09/25 06:16:04;;;;;;;6.15;5.55;;;15.20;99.90;;;;;;6157426;23;20016;-76
2022/09/25 06:18:32;;;;;;;7.25;6.55;;;15.20;99.90;;;;;;6183484;23;20444;-76
2022/09/25 06:21:00;;;;;;;6.97;5.95;;;15.30;99.90;;;;;;6157372;23;20005;-76
2022/09/25 06:23:26;;;;;;;6.03;5.43;;;15.30;99.90;;;;;;6157315;23;20032;-76
2022/09/25 06:25:52;;;;;;;6.13;5.72;;;15.30;99.90;;;;;;6157160;23;20009;-77
2022/09/25 06:28:17;;;;;;;6.35;5.78;;;15.30;99.90;;;;;;6157651;23;20389;-76
2022/09/25 06:30:46;;;;;;;6.55;5.93;;;15.40;99.90;;;;;;6184796;23;20071;-76
2022/09/25 06:33:13;;;;;;;6.45;5.85;;;15.40;99.90;;;;;;6158687;23;20083;-76
2022/09/25 06:35:44;;;;;;;6.53;6.03;;;15.50;99.90;;;;;;6184912;23;20024;-77
2022/09/25 06:38:10;;;;;;;6.25;5.68;;;15.50;99.90;;;;;;6184856;23;19997;-76
2022/09/25 06:40:39;;;;;;;8.65;5.95;;;15.60;99.90;;;;;;6185086;23;20658;-77
2022/09/25 06:43:06;;;;;;;5.93;5.43;;;15.50;99.90;;;;;;6184822;23;20036;-77
2022/09/25 06:45:33;;;;;;;7.10;6.40;;;15.50;99.90;;;;;;6157605;23;20059;-76
2022/09/25 06:48:09;;;;;;;6.43;5.93;;;15.60;99.90;;;;;;6183677;23;20005;-76
2022/09/25 06:50:48;;;;;;;6.90;6.28;;;15.60;99.90;;;;;;6184140;23;20433;-76
2022/09/25 06:53:15;;;;;;;6.93;6.32;;;15.60;99.90;;;;;;6157424;23;20012;-76
2022/09/25 06:55:44;;;;;;;7.03;5.82;;;15.60;99.90;;;;;;6183811;23;20028;-76
2022/09/25 06:58:14;;;;;;;7.32;6.47;;;15.60;99.90;;;;;;6183558;23;20013;-76
2022/09/25 07:00:40;;;;;;;6.65;6.05;;;15.60;99.90;;;;;;6183999;23;20001;-76
2022/09/25 07:03:48;;;;;;;6.47;5.90;;;15.70;99.90;;;;;;6157372;23;20055;-76
2022/09/25 07:05:55;;;;;;;7.13;6.25;;;15.70;99.90;;;;;;6168320;23;20013;-76
2022/09/25 07:08:21;;;;;;;7.20;6.55;;;15.80;99.90;;;;;;6157296;23;20016;-77
2022/09/25 07:10:51;;;;;;;7.93;6.60;;;15.80;99.90;;;;;;6185665;23;20008;-76
2022/09/25 07:13:23;;;;;;;8.65;7.85;;;15.90;99.90;;;;;;6159153;23;20009;-76
2022/09/25 07:16:06;;;;;;;10.38;8.07;;;15.90;99.90;;;;;;6159175;23;20001;-77
2022/09/25 07:18:33;;;;;;;8.65;7.75;;;15.90;99.90;;;;;;6185398;23;20005;-76
2022/09/25 07:21:09;;;;;;;10.50;9.38;;;15.90;99.90;;;;;;6159205;23;20433;-77
2022/09/25 07:23:35;;;;;;;11.15;9.95;;;15.90;99.90;;;;;;6159195;23;20060;-76
2022/09/25 07:26:15;;;;;;;12.93;10.70;;;16.00;99.90;;;;;;6159104;23;20009;-76
2022/09/25 07:28:42;;;;;;;12.65;11.32;;;16.00;99.90;;;;;;6185343;23;20009;-76
2022/09/25 07:31:18;;;;;;;16.48;13.48;;;16.10;99.90;;;;;;6185615;23;20076;-76
2022/09/25 07:33:44;;;;;;;14.13;12.13;;;16.10;99.90;;;;;;6158793;23;20009;-76
2022/09/25 07:36:10;;;;;;;15.30;12.50;;;16.10;99.90;;;;;;6185318;23;20004;-77
2022/09/25 07:38:37;;;;;;;14.25;12.32;;;16.20;99.90;;;;;;6158884;23;20016;-77
2022/09/25 07:41:09;;;;;;;14.88;12.45;;;16.20;99.90;;;;;;6158679;23;20437;-77
2022/09/25 07:43:37;;;;;;;14.75;12.90;;;16.30;99.90;;;;;;6185299;23;20005;-76
2022/09/25 07:46:03;;;;;;;16.83;13.77;;;16.50;99.90;;;;;;6185292;23;20005;-77
2022/09/25 07:48:30;;;;;;;17.05;13.43;;;16.60;99.90;;;;;;6184843;23;20330;-76
2022/09/25 07:51:07;;;;;;;16.10;12.75;;;16.60;99.90;;;;;;6158810;23;20027;-76
2022/09/25 07:53:33;;;;;;;15.35;12.98;;;16.80;99.90;;;;;;6185053;23;20496;-76
2022/09/25 07:56:00;;;;;;;14.90;12.85;;;16.90;99.90;;;;;;6158831;23;20005;-76
2022/09/25 07:58:27;;;;;;;15.50;12.82;;;16.90;99.90;;;;;;6184823;23;20473;-76
2022/09/25 08:00:57;;;;;;;15.52;12.50;;;17.00;99.90;;;;;;6185256;23;20036;-76
2022/09/25 08:03:23;;;;;;;15.90;13.00;;;17.00;99.90;;;;;;6185164;23;20016;-76
2022/09/25 08:06:03;;;;;;;16.50;12.80;;;17.00;99.90;;;;;;6158657;23;20337;-76
2022/09/25 08:08:30;;;;;;;17.02;14.55;;;17.10;99.90;;;;;;6184824;23;20012;-76
2022/09/25 08:11:01;;;;;;;14.15;12.30;;;17.20;99.90;;;;;;6158713;23;20027;-77
2022/09/25 08:13:27;;;;;;;15.07;12.77;;;17.20;99.90;;;;;;6158183;23;20088;-76
2022/09/25 08:15:53;;;;;;;15.35;11.98;;;17.30;99.90;;;;;;6184934;23;20444;-76
2022/09/25 08:18:19;;;;;;;15.65;12.73;;;17.20;99.90;;;;;;6158300;23;20005;-76
2022/09/25 08:20:45;;;;;;;17.88;13.40;;;17.30;99.90;;;;;;6157413;23;20441;-76
2022/09/25 08:23:11;;;;;;;13.25;11.82;;;17.20;99.90;;;;;;6158104;23;20009;-76
2022/09/25 08:25:36;;;;;;;13.43;11.98;;;17.30;99.90;;;;;;6158375;23;20011;-76
2022/09/25 08:28:02;;;;;;;12.82;11.30;;;17.30;99.90;;;;;;6157953;23;20095;-76
2022/09/25 08:30:28;;;;;;;14.15;11.05;;;17.40;99.90;;;;;;6158568;23;20084;-76
2022/09/25 08:32:54;;;;;;;12.88;10.93;;;17.40;99.90;;;;;;6158059;23;20009;-76
2022/09/25 08:35:20;;;;;;;13.38;11.13;;;17.50;99.90;;;;;;6158427;23;20271;-76
2022/09/25 08:37:49;;;;;;;10.95;9.82;;;17.50;99.90;;;;;;6158937;23;20057;-76
2022/09/25 08:40:23;;;;;;;10.73;9.68;;;17.50;99.90;;;;;;6159068;23;20029;-76
2022/09/25 08:42:52;;;;;;;10.13;9.13;;;17.50;99.90;;;;;;6159355;23;20004;-76
2022/09/25 09:06:56;;;;;;;13.93;11.27;;;17.70;99.90;;;;;;5129683;27;20913;-78
2022/09/25 09:09:43;;;;;;;;;;;17.90;99.90;;;;;;5128848;28;20070;-78
2022/09/25 09:12:13;;;;;;;26.95;20.48;;;18.00;99.90;;;;;;5153077;27;19941;-78
2022/09/25 09:14:44;;;;;;;32.60;23.38;;;17.90;99.90;;;;;;5110179;28;20550;-78
2022/09/25 09:17:17;;;;;;;30.90;21.67;;;17.90;99.90;;;;;;5117726;28;20022;-78
2022/09/25 09:19:46;;;;;;;30.83;23.55;;;17.90;99.90;;;;;;5127976;28;20473;-78
2022/09/25 09:22:13;;;;;;;30.05;22.83;;;17.90;99.90;;;;;;5120914;27;20027;-78
2022/09/25 09:24:52;;;;;;;29.55;23.02;;;18.00;99.90;;;;;;5124140;27;20042;-78
2022/09/25 09:27:24;;;;;;;32.80;24.85;;;18.00;99.90;;;;;;5126927;27;20027;-78
2022/09/25 09:30:08;;;;;;;;;;;18.10;99.90;;;;;;5122012;27;20043;-78
2022/09/25 09:32:53;;;;;;;27.13;22.42;;;18.10;99.90;;;;;;5126157;27;19908;-77
2022/09/25 09:35:48;;;;;;;35.55;23.67;;;18.20;99.90;;;;;;5125674;28;20478;-78
2022/09/25 09:38:47;;;;;;;23.17;19.20;;;18.30;99.90;;;;;;5109886;28;20020;-78
2022/09/25 09:41:53;;;;;;;31.08;21.88;;;18.30;99.90;;;;;;5109003;28;20032;-78
2022/09/25 09:44:43;;;;;;;27.63;21.40;;;18.40;99.90;;;;;;5045902;28;20052;-78
2022/09/25 09:47:40;;;;;;;31.38;22.88;;;18.50;99.90;;;;;;5047261;28;20057;-78
2022/09/25 09:50:41;;;;;;;28.60;21.35;;;18.50;99.90;;;;;;5102059;28;20424;-78
2022/09/25 10:09:19;;;;;;;22.30;18.77;;;18.70;99.90;;;;;;5109679;27;20695;-78
2022/09/25 10:11:52;;;;;;;25.48;19.98;;;18.90;99.90;;;;;;5109949;28;20020;-78
2022/09/25 10:14:21;;;;;;;25.67;20.55;;;18.70;99.90;;;;;;5107347;28;20239;-78
2022/09/25 10:16:49;;;;;;;24.83;20.45;;;18.70;99.90;;;;;;5107428;28;20032;-77
2022/09/25 10:19:21;;;;;;;24.17;20.73;;;18.70;99.90;;;;;;5107441;28;20174;-78
2022/09/25 10:22:10;;;;;;;27.13;21.58;;;18.80;99.90;;;;;;5107432;28;20028;-77
2022/09/25 10:24:51;;;;;;;26.23;21.20;;;18.80;99.90;;;;;;5107420;28;20106;-77
2022/09/25 10:27:40;;;;;;;25.30;21.08;;;18.80;99.90;;;;;;5105806;28;20058;-77
2022/09/25 10:30:08;;;;;;;25.98;20.30;;;18.80;99.90;;;;;;5085735;28;20467;-78
2022/09/25 10:32:59;;;;;;;24.77;21.00;;;18.90;99.90;;;;;;5085733;28;20407;-77
2022/09/25 11:12:25;;;;;;;19.40;15.68;;;19.20;99.90;;;;;;5056011;28;20361;-76
2022/09/25 11:15:04;;;;;;;18.23;14.68;;;19.20;99.90;;;;;;5050037;28;20363;-76
2022/09/25 11:47:16;;;;;;;13.88;11.43;;;19.70;99.90;;;;;;6218240;22;1530236;-76
2022/09/25 11:49:42;;;;;;;19.98;14.38;;;20.20;99.90;;;;;;6283550;22;20008;-76
2022/09/25 11:52:38;;;;;;;16.77;13.35;;;20.10;99.90;;;;;;6283038;22;20007;-76
2022/09/25 12:57:22;;;;;;;6.43;5.82;;;20.70;99.90;;;;;;5129531;27;20404;-81
2022/09/25 13:00:17;;;;;;;5.10;4.60;;;20.60;99.90;;;;;;5129817;27;20416;-81
2022/09/25 13:03:03;;;;;;;5.43;4.88;;;20.50;99.90;;;;;;5129381;27;20068;-81
2022/09/25 13:05:43;;;;;;;5.00;4.60;;;20.40;99.90;;;;;;5129542;27;20023;-81
2022/09/25 13:08:15;;;;;;;5.65;5.15;;;20.40;99.90;;;;;;5129279;27;20015;-81
2022/09/25 14:12:42;;;;;;;7.03;6.30;;;20.10;99.90;;;;;;6285775;22;20323;-74
2022/09/25 14:15:21;;;;;;;7.57;5.68;;;20.40;99.90;;;;;;6281671;22;20410;-75
2022/09/25 14:17:49;;;;;;;6.20;5.60;;;20.40;99.90;;;;;;6283248;22;20044;-75
2022/09/25 14:20:28;;;;;;;6.95;5.88;;;20.50;99.90;;;;;;6283276;22;20490;-75
2022/09/25 14:22:56;;;;;;;6.68;6.05;;;20.40;99.90;;;;;;6283151;22;20003;-75
2022/09/25 14:25:39;;;;;;;6.60;6.00;;;20.40;99.90;;;;;;6281733;22;20305;-75
2022/09/25 14:28:29;;;;;;;7.38;6.20;;;20.50;99.90;;;;;;6281679;22;20016;-75
2022/09/25 19:57:06;;;;;;;3.17;3.00;;;17.30;99.90;;;;;;6119801;23;20154;31
2022/09/25 19:59:32;;;;;;;2.95;2.67;;;17.30;99.90;;;;;;6067103;23;20070;-80
2022/09/25 20:01:58;;;;;;;3.72;3.00;;;17.30;99.90;;;;;;6089175;23;20011;-80
2022/09/25 20:04:23;;;;;;;3.10;2.90;;;17.30;99.90;;;;;;6089308;23;20073;-82
2022/09/25 20:06:49;;;;;;;3.20;3.00;;;17.30;99.90;;;;;;6067141;23;20003;-80
2022/09/25 20:09:15;;;;;;;2.72;2.53;;;17.20;99.90;;;;;;6087195;23;20007;-82
2022/09/25 20:11:41;;;;;;;3.22;3.03;;;17.10;99.90;;;;;;6062573;23;20006;-80
2022/09/25 20:14:06;;;;;;;3.45;3.15;;;17.10;99.90;;;;;;6060673;23;20002;-80
2022/09/25 20:16:32;;;;;;;3.90;3.30;;;17.10;99.90;;;;;;6060772;23;20324;-82
2022/09/25 20:19:01;;;;;;;3.80;3.50;;;17.00;99.90;;;;;;6084682;23;20138;-83
2022/09/25 20:21:31;;;;;;;4.13;3.83;;;17.00;99.90;;;;;;6061702;23;20094;-84
2022/09/25 20:23:59;;;;;;;3.25;3.05;;;17.00;99.90;;;;;;6083736;23;20450;-82
2022/09/25 20:26:26;;;;;;;4.97;3.67;;;16.90;99.90;;;;;;6061583;23;20003;-81
2022/09/25 20:28:54;;;;;;;3.83;3.63;;;16.90;99.90;;;;;;6083262;23;20010;-80
2022/09/25 20:31:20;;;;;;;4.40;4.00;;;16.90;99.90;;;;;;6082463;23;20530;-79
2022/09/25 20:33:46;;;;;;;5.18;3.92;;;16.90;99.90;;;;;;6083808;23;20010;-81
2022/09/25 20:36:14;;;;;;;4.00;3.70;;;16.80;99.90;;;;;;6083971;23;20033;-80
2022/09/25 20:38:39;;;;;;;4.43;4.10;;;16.80;99.90;;;;;;6060918;23;20036;-81
2022/09/25 20:41:08;;;;;;;4.30;4.00;;;16.70;99.90;;;;;;6083946;23;20007;-81
2022/09/25 20:43:34;;;;;;;5.30;4.07;;;16.70;99.90;;;;;;6060747;23;20026;-81
2022/09/25 20:46:05;;;;;;;4.88;4.15;;;16.70;99.90;;;;;;6083082;23;20003;-81
2022/09/25 20:48:35;;;;;;;5.07;4.68;;;16.60;99.90;;;;;;6061929;23;20026;-80
2022/09/25 20:51:01;;;;;;;4.45;4.07;;;16.60;99.90;;;;;;6083878;23;20038;-81
2022/09/25 20:53:27;;;;;;;4.72;4.40;;;16.50;99.90;;;;;;6083407;23;20339;-80
2022/09/25 20:55:53;;;;;;;5.55;5.03;;;16.50;99.90;;;;;;6061992;23;20003;-80
2022/09/25 20:58:19;;;;;;;5.38;4.97;;;16.40;99.90;;;;;;6075780;23;20389;-79
2022/09/25 21:00:45;;;;;;;5.43;4.95;;;16.40;99.90;;;;;;6089664;23;20007;-80
2022/09/25 21:03:11;;;;;;;6.75;4.88;;;16.40;99.90;;;;;;6090384;23;20010;-81
2022/09/25 21:05:42;;;;;;;5.43;5.03;;;16.30;99.90;;;;;;6087763;23;20003;-84
2022/09/25 21:08:08;;;;;;;5.10;4.70;;;16.30;99.90;;;;;;6090385;23;20370;-82
2022/09/25 21:10:39;;;;;;;5.63;5.13;;;16.40;99.90;;;;;;6089686;23;20007;-84
2022/09/25 21:13:05;;;;;;;5.95;5.35;;;16.40;99.90;;;;;;6089802;23;20006;-84
2022/09/25 21:15:32;;;;;;;6.95;5.50;;;16.40;99.90;;;;;;6090412;23;20033;-81
2022/09/25 21:17:58;;;;;;;5.68;5.18;;;16.30;99.90;;;;;;6089414;23;20049;-82
2022/09/25 21:20:24;;;;;;;5.95;5.55;;;16.30;99.90;;;;;;6089596;23;20089;-86
2022/09/25 21:22:51;;;;;;;5.53;4.88;;;16.30;99.90;;;;;;6090862;23;19998;-85
2022/09/25 21:25:17;;;;;;;6.70;6.07;;;16.20;99.90;;;;;;6087482;23;20022;-86
2022/09/25 21:27:43;;;;;;;6.05;5.57;;;16.10;99.90;;;;;;6090493;23;20049;-81
2022/09/25 21:30:09;;;;;;;6.20;5.68;;;16.10;99.90;;;;;;6089329;23;20010;-84
2022/09/25 21:32:34;;;;;;;6.57;5.57;;;16.10;99.90;;;;;;6087278;23;20002;-81
2022/09/25 21:35:00;;;;;;;6.65;5.80;;;16.10;99.90;;;;;;6090470;23;19995;-86
2022/09/25 21:37:26;;;;;;;6.90;6.30;;;16.10;99.90;;;;;;6063907;23;20058;-81
2022/09/25 21:39:52;;;;;;;6.60;6.00;;;16.10;99.90;;;;;;6089138;23;20007;-79
2022/09/25 21:42:17;;;;;;;6.88;6.20;;;16.00;99.90;;;;;;6094643;23;20457;-80
2022/09/25 21:44:44;;;;;;;10.73;6.70;;;15.90;99.90;;;;;;6094944;23;20003;-79
2022/09/25 21:47:10;;;;;;;8.23;7.50;;;16.00;99.90;;;;;;6096864;23;20077;-77
2022/09/25 21:49:37;;;;;;;10.27;7.53;;;15.90;99.90;;;;;;6096680;23;20069;-76
2022/09/25 21:52:03;;;;;;;7.43;6.72;;;16.00;99.90;;;;;;6097028;23;20002;-77
2022/09/25 21:54:29;;;;;;;9.13;8.00;;;16.00;99.90;;;;;;6096982;23;20010;-77
2022/09/25 21:56:54;;;;;;;8.13;7.32;;;16.00;99.90;;;;;;6096443;23;20007;-77
2022/09/25 21:59:20;;;;;;;8.48;7.32;;;16.00;99.90;;;;;;6096599;23;20096;-77
2022/09/25 22:01:46;;;;;;;8.98;8.00;;;16.00;99.90;;;;;;6096662;23;20002;-77
2022/09/25 22:04:13;;;;;;;8.18;7.38;;;16.00;99.90;;;;;;6092868;23;20003;-77
2022/09/25 22:06:43;;;;;;;9.68;7.30;;;15.90;99.90;;;;;;6091527;23;20349;-77
2022/09/25 22:09:20;;;;;;;9.05;8.18;;;16.00;99.90;;;;;;6091260;23;19999;-76
2022/09/25 22:11:47;;;;;;;8.52;7.50;;;16.00;99.90;;;;;;6091454;23;20009;-77
2022/09/25 22:14:13;;;;;;;9.65;8.10;;;16.00;99.90;;;;;;6091641;23;20227;-77
2022/09/25 22:16:41;;;;;;;8.55;7.75;;;16.00;99.90;;;;;;6091446;23;20435;-77
2022/09/25 22:19:13;;;;;;;9.20;7.78;;;16.00;99.90;;;;;;6093058;23;20335;-77
2022/09/25 22:21:40;;;;;;;8.77;7.80;;;16.00;99.90;;;;;;6092508;23;20006;-76
2022/09/25 22:24:06;;;;;;;9.05;8.15;;;15.90;99.90;;;;;;6094817;23;20434;-77